Ana Sayfa
METAR-TAF:

METAR-TAF

Havaalanları :

Huntsville Municipal Airport

Huntsville, Teksas, Amerika Birleşik Devletleri

Enlem: 30-44-38N, Boylam: 095-35-10W, yükseklik: 111 m

Güncel hava durumu gözlemi

Rapor saat 10:53 UTC de 43 dakika önce yapıldı.
Sakin rüzgar
Sıcaklık 1°C
Nem 86%
Basınç 1027 hPa
Görüş mesafesi: 16.1 km
Açık gökyüzü

METAR: KUTS 121053Z AUTO 00000KT 10SM CLR 01/M01 A3033 RMK AO2 SLP269 I1000 T00061011

Saat: 05:36 (11:36 UTC)

Tahmin

Rapor saat 11:22 UTC de 14 dakika önce yapıldı.
Ayın 12'si saat 12 UTC'den ayın 13'si saat 12 UTC'ye kadar geçerli Tahmin
Rüzgar güneydan 4 kt
Görüş mesafesi: 10 km
25000 ft yükseklikte parçalı bulutlu

TAF: KUTS 121122Z 1212/1312 17004KT P6SM SCT250

4.000'den fazla havaalanı için hava durumu gözlemleri ve tahminleri (METAR ve TAF raporları).

Kullanılabilir istasyonlar harita üzerinde sarı ve kırmızı noktalarla gösterilir.

İstasyonun adını görmek için fareyi noktanın üzerinde gezdirin.

Sonrasında hava gözlem ve tahminlerini görmek için tıklayın.

Haritayı değiştirmek için: yaklaştırmak için siyah artı işaretli yeşil düğmeye ve uzaklaştırmak için de eksi işaretli düğmeye hızla tıklayın; bitişik haritalar için yeşil okları kullanın.


METAR-TAF: